sensor_id;sensor_type;location;lat;lon;timestamp;pressure;altitude;pressure_sealevel;temperature;humidity
71559;BME280;59382;43.852;25.952;2022-09-25T00:01:37;101551.16;;;16.55;48.01
71559;BME280;59382;43.852;25.952;2022-09-25T00:04:03;101550.94;;;16.56;48.17
71559;BME280;59382;43.852;25.952;2022-09-25T00:06:29;101562.06;;;16.55;48.24
71559;BME280;59382;43.852;25.952;2022-09-25T00:08:58;101558.38;;;16.49;48.53
71559;BME280;59382;43.852;25.952;2022-09-25T00:11:30;101548.41;;;16.43;48.57
71559;BME280;59382;43.852;25.952;2022-09-25T00:13:58;101567.97;;;16.52;48.67
71559;BME280;59382;43.852;25.952;2022-09-25T00:16:29;101535.66;;;16.37;48.69
71559;BME280;59382;43.852;25.952;2022-09-25T00:18:56;101550.06;;;16.44;48.84
71559;BME280;59382;43.852;25.952;2022-09-25T00:21:41;101561.09;;;16.49;48.89
71559;BME280;59382;43.852;25.952;2022-09-25T00:24:08;101555.66;;;16.49;49.00
71559;BME280;59382;43.852;25.952;2022-09-25T00:26:39;101551.72;;;16.45;49.25
71559;BME280;59382;43.852;25.952;2022-09-25T00:29:06;101536.72;;;16.36;49.42
71559;BME280;59382;43.852;25.952;2022-09-25T00:31:33;101550.69;;;16.40;49.42
71559;BME280;59382;43.852;25.952;2022-09-25T00:34:03;101539.00;;;16.39;49.57
71559;BME280;59382;43.852;25.952;2022-09-25T00:36:29;101523.41;;;16.28;49.47
71559;BME280;59382;43.852;25.952;2022-09-25T00:38:56;101541.22;;;16.31;49.61
71559;BME280;59382;43.852;25.952;2022-09-25T00:41:24;101541.91;;;16.26;49.87
71559;BME280;59382;43.852;25.952;2022-09-25T00:43:53;101510.72;;;16.04;49.90
71559;BME280;59382;43.852;25.952;2022-09-25T00:49:01;101520.13;;;16.08;49.80
71559;BME280;59382;43.852;25.952;2022-09-25T00:51:39;101532.22;;;16.12;50.10
71559;BME280;59382;43.852;25.952;2022-09-25T00:54:12;101524.94;;;16.06;50.07
71559;BME280;59382;43.852;25.952;2022-09-25T00:56:43;101513.78;;;15.96;49.88
71559;BME280;59382;43.852;25.952;2022-09-25T00:59:15;101527.50;;;16.01;49.73
71559;BME280;59382;43.852;25.952;2022-09-25T01:01:44;101531.69;;;16.04;49.59
71559;BME280;59382;43.852;25.952;2022-09-25T01:04:10;101523.38;;;15.99;49.47
71559;BME280;59382;43.852;25.952;2022-09-25T01:06:37;101534.19;;;16.05;49.37
71559;BME280;59382;43.852;25.952;2022-09-25T01:09:04;101518.75;;;15.99;49.16
71559;BME280;59382;43.852;25.952;2022-09-25T01:11:30;101519.81;;;15.98;49.23
71559;BME280;59382;43.852;25.952;2022-09-25T01:13:59;101495.69;;;15.84;49.35
71559;BME280;59382;43.852;25.952;2022-09-25T01:16:30;101527.97;;;15.98;49.39
71559;BME280;59382;43.852;25.952;2022-09-25T01:19:05;101522.97;;;15.95;49.77
71559;BME280;59382;43.852;25.952;2022-09-25T01:22:19;101524.50;;;15.91;49.65
71559;BME280;59382;43.852;25.952;2022-09-25T01:25:06;101524.72;;;15.90;49.46
71559;BME280;59382;43.852;25.952;2022-09-25T01:27:44;101523.88;;;15.89;49.42
71559;BME280;59382;43.852;25.952;2022-09-25T01:30:16;101500.16;;;15.78;49.38
71559;BME280;59382;43.852;25.952;2022-09-25T01:33:07;101486.09;;;15.63;49.27
71559;BME280;59382;43.852;25.952;2022-09-25T01:35:46;101508.31;;;15.78;49.21
71559;BME280;59382;43.852;25.952;2022-09-25T01:38:44;101510.59;;;15.81;49.63
71559;BME280;59382;43.852;25.952;2022-09-25T01:43:56;101509.84;;;15.74;49.62
71559;BME280;59382;43.852;25.952;2022-09-25T01:46:39;101513.59;;;15.73;49.61
71559;BME280;59382;43.852;25.952;2022-09-25T01:49:38;101517.84;;;15.69;49.58
71559;BME280;59382;43.852;25.952;2022-09-25T01:52:07;101510.34;;;15.64;49.70
71559;BME280;59382;43.852;25.952;2022-09-25T01:54:48;101515.56;;;15.66;49.83
71559;BME280;59382;43.852;25.952;2022-09-25T01:57:30;101506.03;;;15.57;49.75
71559;BME280;59382;43.852;25.952;2022-09-25T02:00:06;101514.59;;;15.60;49.42
71559;BME280;59382;43.852;25.952;2022-09-25T02:02:38;101516.69;;;15.58;49.76
71559;BME280;59382;43.852;25.952;2022-09-25T02:07:44;101506.41;;;15.36;49.66
71559;BME280;59382;43.852;25.952;2022-09-25T02:10:15;101538.50;;;15.52;49.69
71559;BME280;59382;43.852;25.952;2022-09-25T02:12:47;101531.41;;;15.51;49.52
71559;BME280;59382;43.852;25.952;2022-09-25T02:15:16;101532.31;;;15.45;49.69
71559;BME280;59382;43.852;25.952;2022-09-25T02:17:50;101526.03;;;15.44;49.66
71559;BME280;59382;43.852;25.952;2022-09-25T02:20:37;101511.84;;;15.36;49.46
71559;BME280;59382;43.852;25.952;2022-09-25T02:23:24;101515.63;;;15.35;49.32
71559;BME280;59382;43.852;25.952;2022-09-25T02:28:16;101500.66;;;15.26;49.65
71559;BME280;59382;43.852;25.952;2022-09-25T02:30:45;101520.22;;;15.34;49.57
71559;BME280;59382;43.852;25.952;2022-09-25T02:33:11;101517.75;;;15.33;49.23
71559;BME280;59382;43.852;25.952;2022-09-25T02:35:37;101522.38;;;15.32;49.44
71559;BME280;59382;43.852;25.952;2022-09-25T02:38:03;101526.56;;;15.28;49.40
71559;BME280;59382;43.852;25.952;2022-09-25T02:40:54;101524.50;;;15.24;49.63
71559;BME280;59382;43.852;25.952;2022-09-25T02:49:19;101519.50;;;15.21;50.00
71559;BME280;59382;43.852;25.952;2022-09-25T02:51:50;101525.78;;;15.21;49.95
71559;BME280;59382;43.852;25.952;2022-09-25T02:54:25;101511.03;;;15.11;50.30
71559;BME280;59382;43.852;25.952;2022-09-25T02:57:12;101521.66;;;15.19;49.99
71559;BME280;59382;43.852;25.952;2022-09-25T03:00:07;101512.41;;;15.20;50.04
71559;BME280;59382;43.852;25.952;2022-09-25T03:02:33;101510.59;;;15.14;50.08
71559;BME280;59382;43.852;25.952;2022-09-25T03:05:02;101517.09;;;15.13;50.02
71559;BME280;59382;43.852;25.952;2022-09-25T03:07:30;101533.72;;;15.23;50.15
71559;BME280;59382;43.852;25.952;2022-09-25T03:10:15;101533.72;;;15.23;50.17
71559;BME280;59382;43.852;25.952;2022-09-25T03:12:41;101522.84;;;15.23;49.87
71559;BME280;59382;43.852;25.952;2022-09-25T03:15:07;101536.63;;;15.28;49.89
71559;BME280;59382;43.852;25.952;2022-09-25T03:17:33;101525.19;;;15.19;49.83
71559;BME280;59382;43.852;25.952;2022-09-25T03:19:59;101535.38;;;15.24;49.67
71559;BME280;59382;43.852;25.952;2022-09-25T03:22:27;101515.41;;;15.12;49.93
71559;BME280;59382;43.852;25.952;2022-09-25T03:24:52;101515.47;;;15.05;49.94
71559;BME280;59382;43.852;25.952;2022-09-25T03:27:19;101520.47;;;15.08;50.14
71559;BME280;59382;43.852;25.952;2022-09-25T03:29:48;101540.06;;;15.17;49.99
71559;BME280;59382;43.852;25.952;2022-09-25T03:32:14;101536.72;;;15.15;50.13
71559;BME280;59382;43.852;25.952;2022-09-25T03:34:40;101535.06;;;15.14;50.30
71559;BME280;59382;43.852;25.952;2022-09-25T03:37:05;101547.16;;;15.18;50.08
71559;BME280;59382;43.852;25.952;2022-09-25T03:39:31;101541.50;;;15.19;50.37
71559;BME280;59382;43.852;25.952;2022-09-25T03:41:56;101525.47;;;15.11;50.25
71559;BME280;59382;43.852;25.952;2022-09-25T03:44:22;101545.03;;;15.20;50.15
71559;BME280;59382;43.852;25.952;2022-09-25T03:46:47;101544.19;;;15.19;50.59
71559;BME280;59382;43.852;25.952;2022-09-25T03:49:13;101511.38;;;14.96;50.50
71559;BME280;59382;43.852;25.952;2022-09-25T03:51:39;101552.13;;;15.21;50.16
71559;BME280;59382;43.852;25.952;2022-09-25T03:54:07;101545.03;;;15.20;50.44
71559;BME280;59382;43.852;25.952;2022-09-25T03:56:34;101522.59;;;15.00;50.61
71559;BME280;59382;43.852;25.952;2022-09-25T03:59:02;101540.94;;;15.11;50.63
71559;BME280;59382;43.852;25.952;2022-09-25T04:01:28;101519.44;;;15.03;50.71
71559;BME280;59382;43.852;25.952;2022-09-25T04:03:55;101544.28;;;15.13;50.83
71559;BME280;59382;43.852;25.952;2022-09-25T04:06:23;101543.00;;;15.15;50.73
71559;BME280;59382;43.852;25.952;2022-09-25T04:08:49;101550.94;;;15.17;50.62
71559;BME280;59382;43.852;25.952;2022-09-25T04:11:16;101539.44;;;15.15;50.67
71559;BME280;59382;43.852;25.952;2022-09-25T04:13:44;101557.13;;;15.24;50.58
71559;BME280;59382;43.852;25.952;2022-09-25T04:16:12;101536.13;;;15.13;50.47
71559;BME280;59382;43.852;25.952;2022-09-25T04:18:38;101550.47;;;15.20;50.21
71559;BME280;59382;43.852;25.952;2022-09-25T04:21:07;101557.56;;;15.21;50.21
71559;BME280;59382;43.852;25.952;2022-09-25T04:23:35;101554.84;;;15.21;50.30
71559;BME280;59382;43.852;25.952;2022-09-25T04:26:01;101556.75;;;15.20;50.30
71559;BME280;59382;43.852;25.952;2022-09-25T04:28:27;101562.78;;;15.22;50.49
71559;BME280;59382;43.852;25.952;2022-09-25T04:30:55;101562.34;;;15.25;50.56
71559;BME280;59382;43.852;25.952;2022-09-25T04:33:20;101563.19;;;15.26;50.26
71559;BME280;59382;43.852;25.952;2022-09-25T04:36:05;101558.19;;;15.23;50.34
71559;BME280;59382;43.852;25.952;2022-09-25T04:38:33;101560.03;;;15.29;50.35
71559;BME280;59382;43.852;25.952;2022-09-25T04:41:00;101545.38;;;15.30;50.42
71559;BME280;59382;43.852;25.952;2022-09-25T04:43:31;101529.50;;;15.27;50.62
71559;BME280;59382;43.852;25.952;2022-09-25T04:46:04;101549.94;;;15.36;50.54
71559;BME280;59382;43.852;25.952;2022-09-25T04:48:31;101534.88;;;15.40;50.18
71559;BME280;59382;43.852;25.952;2022-09-25T04:50:57;101534.41;;;15.43;50.35
71559;BME280;59382;43.852;25.952;2022-09-25T04:53:27;101533.50;;;15.49;50.38
71559;BME280;59382;43.852;25.952;2022-09-25T04:55:59;101536.47;;;15.47;50.54
71559;BME280;59382;43.852;25.952;2022-09-25T04:58:25;101556.75;;;15.51;50.33
71559;BME280;59382;43.852;25.952;2022-09-25T05:00:50;101536.91;;;15.44;50.71
71559;BME280;59382;43.852;25.952;2022-09-25T05:03:16;101545.00;;;15.51;50.90
71559;BME280;59382;43.852;25.952;2022-09-25T05:05:41;101543.34;;;15.50;51.27
71559;BME280;59382;43.852;25.952;2022-09-25T05:08:08;101543.34;;;15.50;51.19
71559;BME280;59382;43.852;25.952;2022-09-25T05:10:34;101536.41;;;15.54;51.50
71559;BME280;59382;43.852;25.952;2022-09-25T05:13:01;101537.16;;;15.61;51.15
71559;BME280;59382;43.852;25.952;2022-09-25T05:15:28;101537.13;;;15.67;51.08
71559;BME280;59382;43.852;25.952;2022-09-25T05:18:07;101533.44;;;15.80;51.09
71559;BME280;59382;43.852;25.952;2022-09-25T05:20:36;101539.31;;;15.95;50.70
71559;BME280;59382;43.852;25.952;2022-09-25T05:23:02;101536.47;;;16.08;50.84
71559;BME280;59382;43.852;25.952;2022-09-25T05:25:30;101540.50;;;16.35;50.49
71559;BME280;59382;43.852;25.952;2022-09-25T05:27:57;101524.75;;;16.55;49.95
71559;BME280;59382;43.852;25.952;2022-09-25T05:30:25;101520.34;;;16.72;49.50
71559;BME280;59382;43.852;25.952;2022-09-25T05:32:51;101537.22;;;16.92;49.32
71559;BME280;59382;43.852;25.952;2022-09-25T05:35:22;101542.19;;;16.95;48.68
71559;BME280;59382;43.852;25.952;2022-09-25T05:37:48;101536.53;;;17.08;48.43
71559;BME280;59382;43.852;25.952;2022-09-25T05:40:15;101533.09;;;17.13;48.09
71559;BME280;59382;43.852;25.952;2022-09-25T05:42:44;101530.75;;;17.28;47.89
71559;BME280;59382;43.852;25.952;2022-09-25T05:45:13;101534.59;;;17.50;47.78
71559;BME280;59382;43.852;25.952;2022-09-25T05:47:40;101533.28;;;17.76;47.54
71559;BME280;59382;43.852;25.952;2022-09-25T05:50:07;101526.41;;;17.85;46.91
71559;BME280;59382;43.852;25.952;2022-09-25T05:52:34;101534.06;;;18.22;46.72
71559;BME280;59382;43.852;25.952;2022-09-25T05:55:01;101530.81;;;18.65;46.26
71559;BME280;59382;43.852;25.952;2022-09-25T05:57:34;101510.28;;;19.07;45.20
71559;BME280;59382;43.852;25.952;2022-09-25T06:00:05;101518.56;;;19.45;44.54
71559;BME280;59382;43.852;25.952;2022-09-25T06:02:32;101524.25;;;19.77;44.10
71559;BME280;59382;43.852;25.952;2022-09-25T06:04:58;101508.22;;;19.85;43.45
71559;BME280;59382;43.852;25.952;2022-09-25T06:07:23;101512.50;;;19.98;43.34
71559;BME280;59382;43.852;25.952;2022-09-25T06:09:49;101517.28;;;20.07;42.77
71559;BME280;59382;43.852;25.952;2022-09-25T06:12:14;101530.78;;;20.30;42.29
71559;BME280;59382;43.852;25.952;2022-09-25T06:14:40;101525.06;;;20.58;42.02
71559;BME280;59382;43.852;25.952;2022-09-25T06:17:06;101527.25;;;20.83;41.86
71559;BME280;59382;43.852;25.952;2022-09-25T06:19:32;101523.63;;;21.04;41.75
71559;BME280;59382;43.852;25.952;2022-09-25T06:22:02;101515.75;;;21.12;41.61
71559;BME280;59382;43.852;25.952;2022-09-25T06:24:30;101513.97;;;21.28;41.56
71559;BME280;59382;43.852;25.952;2022-09-25T06:26:56;101520.13;;;21.45;41.10
71559;BME280;59382;43.852;25.952;2022-09-25T06:29:21;101531.56;;;21.69;41.08
71559;BME280;59382;43.852;25.952;2022-09-25T06:31:47;101508.28;;;21.76;40.89
71559;BME280;59382;43.852;25.952;2022-09-25T06:34:13;101536.44;;;21.98;40.63
71559;BME280;59382;43.852;25.952;2022-09-25T06:36:38;101529.66;;;22.11;39.98
71559;BME280;59382;43.852;25.952;2022-09-25T06:39:04;101518.16;;;22.24;39.51
71559;BME280;59382;43.852;25.952;2022-09-25T06:41:30;101505.78;;;22.26;39.31
71559;BME280;59382;43.852;25.952;2022-09-25T06:43:55;101516.25;;;22.34;39.13
71559;BME280;59382;43.852;25.952;2022-09-25T06:46:21;101524.00;;;22.47;39.01
71559;BME280;59382;43.852;25.952;2022-09-25T06:48:54;101519.94;;;22.55;38.31
71559;BME280;59382;43.852;25.952;2022-09-25T06:51:24;101529.31;;;22.64;38.63
71559;BME280;59382;43.852;25.952;2022-09-25T06:53:57;101521.88;;;22.69;38.68
71559;BME280;59382;43.852;25.952;2022-09-25T06:56:24;101530.16;;;22.74;38.46
71559;BME280;59382;43.852;25.952;2022-09-25T06:58:50;101523.56;;;22.70;38.38
71559;BME280;59382;43.852;25.952;2022-09-25T07:01:16;101534.84;;;22.79;38.29
71559;BME280;59382;43.852;25.952;2022-09-25T07:03:42;101541.47;;;22.78;38.30
71559;BME280;59382;43.852;25.952;2022-09-25T07:06:16;101544.75;;;22.80;38.10
71559;BME280;59382;43.852;25.952;2022-09-25T07:08:43;101559.06;;;22.82;37.87
71559;BME280;59382;43.852;25.952;2022-09-25T07:11:18;101548.06;;;22.72;37.92
71559;BME280;59382;43.852;25.952;2022-09-25T07:13:44;101551.88;;;22.61;38.14
71559;BME280;59382;43.852;25.952;2022-09-25T07:16:15;101564.25;;;22.68;37.68
71559;BME280;59382;43.852;25.952;2022-09-25T07:18:44;101550.22;;;22.65;37.75
71559;BME280;59382;43.852;25.952;2022-09-25T07:21:16;101553.56;;;22.72;37.23
71559;BME280;59382;43.852;25.952;2022-09-25T07:23:42;101554.66;;;22.76;37.22
71559;BME280;59382;43.852;25.952;2022-09-25T07:28:36;101539.78;;;22.67;37.07
71559;BME280;59382;43.852;25.952;2022-09-25T07:31:27;101548.56;;;22.64;37.16
71559;BME280;59382;43.852;25.952;2022-09-25T07:33:55;101544.72;;;22.60;37.21
71559;BME280;59382;43.852;25.952;2022-09-25T07:36:27;101541.94;;;22.55;37.16
71559;BME280;59382;43.852;25.952;2022-09-25T07:38:54;101542.16;;;22.48;37.25
71559;BME280;59382;43.852;25.952;2022-09-25T07:41:21;101525.91;;;22.42;37.12
71559;BME280;59382;43.852;25.952;2022-09-25T07:43:57;101533.06;;;22.43;36.71
71559;BME280;59382;43.852;25.952;2022-09-25T07:46:24;101531.41;;;22.42;37.01
71559;BME280;59382;43.852;25.952;2022-09-25T07:48:50;101527.00;;;22.36;37.14
71559;BME280;59382;43.852;25.952;2022-09-25T07:51:16;101519.53;;;22.21;37.06
71559;BME280;59382;43.852;25.952;2022-09-25T07:53:42;101528.88;;;22.25;36.99
71559;BME280;59382;43.852;25.952;2022-09-25T07:56:11;101509.06;;;22.18;36.93
71559;BME280;59382;43.852;25.952;2022-09-25T07:58:40;101516.50;;;22.23;37.13
71559;BME280;59382;43.852;25.952;2022-09-25T08:01:08;101506.84;;;22.15;36.90
71559;BME280;59382;43.852;25.952;2022-09-25T08:03:35;101510.41;;;22.16;37.12
71559;BME280;59382;43.852;25.952;2022-09-25T08:08:27;101492.72;;;21.97;37.43
71559;BME280;59382;43.852;25.952;2022-09-25T08:10:58;101506.50;;;22.07;37.57
71559;BME280;59382;43.852;25.952;2022-09-25T08:13:24;101492.78;;;22.02;37.67
71559;BME280;59382;43.852;25.952;2022-09-25T08:15:50;101501.28;;;22.05;37.79
71559;BME280;59382;43.852;25.952;2022-09-25T08:18:16;101498.25;;;22.02;37.80
71559;BME280;59382;43.852;25.952;2022-09-25T08:20:42;101500.72;;;21.98;37.80
71559;BME280;59382;43.852;25.952;2022-09-25T08:23:07;101507.84;;;21.94;38.07
71559;BME280;59382;43.852;25.952;2022-09-25T08:25:33;101502.09;;;21.96;38.04
71559;BME280;59382;43.852;25.952;2022-09-25T08:27:58;101502.03;;;21.91;38.02
71559;BME280;59382;43.852;25.952;2022-09-25T08:30:24;101490.75;;;21.82;37.97
71559;BME280;59382;43.852;25.952;2022-09-25T08:32:50;101472.00;;;21.74;38.16
71559;BME280;59382;43.852;25.952;2022-09-25T08:35:18;101486.56;;;21.75;38.03
71559;BME280;59382;43.852;25.952;2022-09-25T08:37:43;101479.31;;;21.64;38.03
71559;BME280;59382;43.852;25.952;2022-09-25T08:40:37;101494.69;;;21.60;38.32
71559;BME280;59382;43.852;25.952;2022-09-25T08:43:04;101481.44;;;21.52;38.10
71559;BME280;59382;43.852;25.952;2022-09-25T08:45:34;101485.66;;;21.64;38.17
71559;BME280;59382;43.852;25.952;2022-09-25T08:49:11;101467.28;;;21.70;37.71
71559;BME280;59382;43.852;25.952;2022-09-25T08:51:28;101484.13;;;21.83;37.63
71559;BME280;59382;43.852;25.952;2022-09-25T08:53:54;101474.03;;;21.89;37.59
71559;BME280;59382;43.852;25.952;2022-09-25T08:56:20;101477.88;;;21.93;37.59
71559;BME280;59382;43.852;25.952;2022-09-25T09:01:51;101455.97;;;22.08;37.00
71559;BME280;59382;43.852;25.952;2022-09-25T09:04:29;101448.78;;;22.07;37.02
71559;BME280;59382;43.852;25.952;2022-09-25T09:07:07;101448.31;;;22.20;36.79
71559;BME280;59382;43.852;25.952;2022-09-25T09:09:43;101456.59;;;22.30;36.89
71559;BME280;59382;43.852;25.952;2022-09-25T09:12:40;101459.66;;;22.43;36.41
71559;BME280;59382;43.852;25.952;2022-09-25T09:15:33;101448.97;;;22.52;36.18
71559;BME280;59382;43.852;25.952;2022-09-25T09:18:31;101451.72;;;22.57;36.22
71559;BME280;59382;43.852;25.952;2022-09-25T09:23:38;101431.38;;;22.58;36.25
71559;BME280;59382;43.852;25.952;2022-09-25T09:26:22;101432.47;;;22.62;36.38
71559;BME280;59382;43.852;25.952;2022-09-25T09:42:32;101417.63;;;22.63;35.93
71559;BME280;59382;43.852;25.952;2022-09-25T09:53:10;101417.06;;;22.51;35.78
71559;BME280;59382;43.852;25.952;2022-09-25T09:55:52;101419.81;;;22.51;35.85
71559;BME280;59382;43.852;25.952;2022-09-25T09:58:42;101403.31;;;22.51;35.84
71559;BME280;59382;43.852;25.952;2022-09-25T10:01:13;101404.41;;;22.60;36.11
71559;BME280;59382;43.852;25.952;2022-09-25T10:03:40;101407.72;;;22.67;36.00
71559;BME280;59382;43.852;25.952;2022-09-25T10:06:13;101396.72;;;22.67;35.56
71559;BME280;59382;43.852;25.952;2022-09-25T10:08:42;101389.56;;;22.66;35.80
71559;BME280;59382;43.852;25.952;2022-09-25T10:11:14;101368.13;;;22.63;35.68
71559;BME280;59382;43.852;25.952;2022-09-25T10:13:41;101379.66;;;22.70;35.70
71559;BME280;59382;43.852;25.952;2022-09-25T10:16:16;101375.78;;;22.71;35.34
71559;BME280;59382;43.852;25.952;2022-09-25T10:21:22;101359.84;;;22.63;35.51
71559;BME280;59382;43.852;25.952;2022-09-25T10:23:51;101367.81;;;22.69;35.68
71559;BME280;59382;43.852;25.952;2022-09-25T10:26:36;101358.75;;;22.74;35.38
71559;BME280;59382;43.852;25.952;2022-09-25T10:29:04;101345.53;;;22.71;35.40
71559;BME280;59382;43.852;25.952;2022-09-25T10:31:56;101330.69;;;22.62;35.38
71559;BME280;59382;43.852;25.952;2022-09-25T10:34:22;101343.91;;;22.75;35.21
71559;BME280;59382;43.852;25.952;2022-09-25T10:36:51;101349.13;;;22.71;35.14
71559;BME280;59382;43.852;25.952;2022-09-25T10:39:32;101349.38;;;22.65;35.01
71559;BME280;59382;43.852;25.952;2022-09-25T10:41:59;101349.13;;;22.61;35.14
71559;BME280;59382;43.852;25.952;2022-09-25T10:44:36;101333.44;;;22.52;35.30
71559;BME280;59382;43.852;25.952;2022-09-25T10:50:25;101333.72;;;22.65;35.52
71559;BME280;59382;43.852;25.952;2022-09-25T10:52:56;101323.81;;;22.59;35.18
71559;BME280;59382;43.852;25.952;2022-09-25T10:55:33;101332.31;;;22.68;35.19
71559;BME280;59382;43.852;25.952;2022-09-25T10:58:28;101330.97;;;22.65;34.70
71559;BME280;59382;43.852;25.952;2022-09-25T11:00:58;101324.63;;;22.70;34.87
71559;BME280;59382;43.852;25.952;2022-09-25T11:03:35;101332.34;;;22.78;34.58
71559;BME280;59382;43.852;25.952;2022-09-25T11:06:21;101321.34;;;22.78;34.31
71559;BME280;59382;43.852;25.952;2022-09-25T11:09:03;101297.69;;;22.72;34.32
71559;BME280;59382;43.852;25.952;2022-09-25T11:11:32;101310.31;;;22.88;34.31
71559;BME280;59382;43.852;25.952;2022-09-25T11:14:01;101303.72;;;22.84;34.08
71559;BME280;59382;43.852;25.952;2022-09-25T11:16:53;101310.03;;;22.84;33.92
71559;BME280;59382;43.852;25.952;2022-09-25T11:19:28;101310.84;;;22.85;34.09
71559;BME280;59382;43.852;25.952;2022-09-25T11:22:26;101324.06;;;22.88;34.15
71559;BME280;59382;43.852;25.952;2022-09-25T11:28:01;101301.53;;;22.81;33.83
71559;BME280;59382;43.852;25.952;2022-09-25T11:30:39;101287.75;;;22.71;33.64
71559;BME280;59382;43.852;25.952;2022-09-25T11:33:16;101275.13;;;22.70;33.69
71559;BME280;59382;43.852;25.952;2022-09-25T11:36:07;101279.50;;;22.71;33.57
71559;BME280;59382;43.852;25.952;2022-09-25T11:41:40;101287.75;;;22.81;33.73
71559;BME280;59382;43.852;25.952;2022-09-25T11:44:28;101287.75;;;22.81;33.55
71559;BME280;59382;43.852;25.952;2022-09-25T11:49:50;101273.44;;;22.79;33.63
71559;BME280;59382;43.852;25.952;2022-09-25T11:55:18;101277.84;;;22.85;33.58
71559;BME280;59382;43.852;25.952;2022-09-25T11:57:58;101269.31;;;22.86;33.50
71559;BME280;59382;43.852;25.952;2022-09-25T12:06:12;101267.34;;;22.92;33.48
71559;BME280;59382;43.852;25.952;2022-09-25T12:09:15;101256.34;;;22.92;33.55
71559;BME280;59382;43.852;25.952;2022-09-25T12:17:43;101247.53;;;22.90;32.84
71559;BME280;59382;43.852;25.952;2022-09-25T12:30:37;101248.09;;;22.97;32.82
71559;BME280;59382;43.852;25.952;2022-09-25T12:33:32;101245.06;;;22.98;33.07
71559;BME280;59382;43.852;25.952;2022-09-25T12:36:22;101250.56;;;22.98;32.97
71559;BME280;59382;43.852;25.952;2022-09-25T12:42:18;101242.03;;;23.00;33.08
71559;BME280;59382;43.852;25.952;2022-09-25T12:44:56;101244.72;;;23.05;32.87
71559;BME280;59382;43.852;25.952;2022-09-25T12:47:35;101247.22;;;23.06;32.73
71559;BME280;59382;43.852;25.952;2022-09-25T12:50:24;101237.03;;;23.07;32.83
71559;BME280;59382;43.852;25.952;2022-09-25T12:53:01;101232.09;;;23.04;32.67
71559;BME280;59382;43.852;25.952;2022-09-25T12:55:37;101226.59;;;23.04;32.79
71559;BME280;59382;43.852;25.952;2022-09-25T13:01:14;101199.09;;;22.94;32.88
71559;BME280;59382;43.852;25.952;2022-09-25T13:06:52;101207.31;;;22.99;32.95
71559;BME280;59382;43.852;25.952;2022-09-25T13:09:33;101209.28;;;22.98;32.67
71559;BME280;59382;43.852;25.952;2022-09-25T13:12:08;101200.19;;;22.93;32.90
71559;BME280;59382;43.852;25.952;2022-09-25T13:14:38;101208.44;;;22.98;32.88
71559;BME280;59382;43.852;25.952;2022-09-25T13:17:11;101192.50;;;22.90;32.86
71559;BME280;59382;43.852;25.952;2022-09-25T13:19:38;101193.03;;;22.92;32.87
71559;BME280;59382;43.852;25.952;2022-09-25T13:22:13;101186.44;;;22.93;32.32
71559;BME280;59382;43.852;25.952;2022-09-25T13:24:45;101173.28;;;22.85;32.47
71559;BME280;59382;43.852;25.952;2022-09-25T13:27:18;101181.47;;;22.90;32.46
71559;BME280;59382;43.852;25.952;2022-09-25T13:29:52;101179.84;;;22.89;32.44
71559;BME280;59382;43.852;25.952;2022-09-25T13:32:22;101182.03;;;22.92;32.50
71559;BME280;59382;43.852;25.952;2022-09-25T13:34:53;101176.53;;;22.87;32.63
71559;BME280;59382;43.852;25.952;2022-09-25T13:37:27;101186.47;;;22.88;32.57
71559;BME280;59382;43.852;25.952;2022-09-25T13:39:54;101181.25;;;22.86;32.59
71559;BME280;59382;43.852;25.952;2022-09-25T13:42:40;101163.38;;;22.79;32.60
71559;BME280;59382;43.852;25.952;2022-09-25T13:45:29;101175.47;;;22.83;32.40
71559;BME280;59382;43.852;25.952;2022-09-25T13:50:27;101182.03;;;22.87;32.59
71559;BME280;59382;43.852;25.952;2022-09-25T13:53:15;101179.88;;;22.84;32.34
71559;BME280;59382;43.852;25.952;2022-09-25T13:58:25;101168.88;;;22.79;32.26
71559;BME280;59382;43.852;25.952;2022-09-25T14:00:54;101154.06;;;22.70;32.26
71559;BME280;59382;43.852;25.952;2022-09-25T14:03:40;101162.31;;;22.75;32.08
71559;BME280;59382;43.852;25.952;2022-09-25T14:06:24;101162.31;;;22.70;31.95
71559;BME280;59382;43.852;25.952;2022-09-25T14:08:52;101148.03;;;22.63;32.01
71559;BME280;59382;43.852;25.952;2022-09-25T14:11:29;101144.19;;;22.64;31.84
71559;BME280;59382;43.852;25.952;2022-09-25T14:13:58;101123.28;;;22.53;32.00
71559;BME280;59382;43.852;25.952;2022-09-25T14:19:06;101148.56;;;22.70;31.97
71559;BME280;59382;43.852;25.952;2022-09-25T14:21:33;101145.53;;;22.71;32.14
71559;BME280;59382;43.852;25.952;2022-09-25T14:24:31;101143.06;;;22.70;31.70
71559;BME280;59382;43.852;25.952;2022-09-25T14:26:59;101137.00;;;22.73;32.01
71559;BME280;59382;43.852;25.952;2022-09-25T14:29:37;101133.69;;;22.71;31.97
71559;BME280;59382;43.852;25.952;2022-09-25T14:37:27;101142.50;;;22.73;33.35
71559;BME280;59382;43.852;25.952;2022-09-25T14:45:23;101132.34;;;22.63;33.48
71559;BME280;59382;43.852;25.952;2022-09-25T14:48:02;101135.66;;;22.65;33.37
71559;BME280;59382;43.852;25.952;2022-09-25T14:50:32;101115.59;;;22.60;33.22
71559;BME280;59382;43.852;25.952;2022-09-25T14:53:04;101116.66;;;22.64;33.36
71559;BME280;59382;43.852;25.952;2022-09-25T14:55:43;101104.03;;;22.58;33.39
71559;BME280;59382;43.852;25.952;2022-09-25T14:58:22;101111.72;;;22.61;32.98
71559;BME280;59382;43.852;25.952;2022-09-25T15:00:53;101096.34;;;22.50;32.97
71559;BME280;59382;43.852;25.952;2022-09-25T15:03:26;101121.09;;;22.60;32.94